createdAt,value
2023-03-26T00:00:18.154Z,25.26
2023-03-26T00:01:18.256Z,25.29
2023-03-26T00:02:18.192Z,25.29
2023-03-26T00:03:18.168Z,25.25
2023-03-26T00:04:18.164Z,25.21
2023-03-26T00:05:18.155Z,25.19
2023-03-26T00:06:18.113Z,25.21
2023-03-26T00:07:18.123Z,25.21
2023-03-26T00:08:18.166Z,25.21
2023-03-26T00:09:18.071Z,25.19
2023-03-26T00:10:18.172Z,25.19
2023-03-26T00:11:18.079Z,25.16
2023-03-26T00:12:18.030Z,25.15
2023-03-26T00:13:18.029Z,25.15
2023-03-26T00:14:18.106Z,25.14
2023-03-26T00:15:18.037Z,25.12
2023-03-26T00:16:18.086Z,25.11
2023-03-26T00:17:18.026Z,25.12
2023-03-26T00:18:17.928Z,25.11
2023-03-26T00:19:17.986Z,25.11
2023-03-26T00:20:17.950Z,25.09
2023-03-26T00:21:17.957Z,25.12
2023-03-26T00:22:18.024Z,25.11
2023-03-26T00:23:17.897Z,25.11
2023-03-26T00:24:17.857Z,25.11
2023-03-26T00:25:17.942Z,25.14
2023-03-26T00:26:17.860Z,25.14
2023-03-26T00:27:18.694Z,25.16
2023-03-26T00:28:17.824Z,25.18
2023-03-26T00:29:17.833Z,25.21
2023-03-26T00:30:17.846Z,25.19
2023-03-26T00:31:17.943Z,25.19
2023-03-26T00:32:19.355Z,25.19
2023-03-26T00:33:17.786Z,25.22
2023-03-26T00:34:17.813Z,25.24
2023-03-26T00:35:17.819Z,25.25
2023-03-26T00:36:17.797Z,25.24
2023-03-26T00:37:17.794Z,25.19
2023-03-26T00:38:17.761Z,25.12
2023-03-26T00:39:17.981Z,25.04
2023-03-26T00:40:17.758Z,24.97
2023-03-26T00:41:17.998Z,24.88
2023-03-26T00:42:17.664Z,24.84
2023-03-26T00:43:17.771Z,24.85
2023-03-26T00:44:17.691Z,24.84
2023-03-26T00:45:17.707Z,24.81
2023-03-26T00:46:17.920Z,24.81
2023-03-26T00:47:17.698Z,24.81
2023-03-26T00:48:17.607Z,24.79
2023-03-26T00:49:17.718Z,24.78
2023-03-26T00:50:17.733Z,24.78
2023-03-26T00:51:17.755Z,24.81
2023-03-26T00:52:17.629Z,24.81
2023-03-26T00:53:17.642Z,24.78
2023-03-26T00:54:17.624Z,24.75
2023-03-26T00:55:17.670Z,24.69
2023-03-26T00:56:17.670Z,24.71
2023-03-26T00:57:28.885Z,24.74
2023-03-26T00:58:17.575Z,24.69
2023-03-26T00:59:17.657Z,24.69
2023-03-26T01:00:17.584Z,24.69
2023-03-26T01:01:17.644Z,24.71
2023-03-26T01:02:17.641Z,24.74
2023-03-26T01:03:27.959Z,24.75
2023-03-26T01:04:17.840Z,24.75
2023-03-26T01:05:17.579Z,24.74
2023-03-26T01:06:17.660Z,24.74
2023-03-26T01:07:18.870Z,24.74
2023-03-26T01:08:19.292Z,24.74
2023-03-26T01:09:18.271Z,24.75
2023-03-26T01:10:17.681Z,24.79
2023-03-26T01:11:18.389Z,24.78
2023-03-26T01:12:17.687Z,24.79
2023-03-26T01:13:18.113Z,24.79
2023-03-26T01:14:17.906Z,24.81
2023-03-26T01:15:17.805Z,24.79
2023-03-26T01:16:18.850Z,24.82
2023-03-26T01:17:18.117Z,24.82
2023-03-26T01:18:18.948Z,24.81
2023-03-26T01:19:20.602Z,24.82
2023-03-26T01:20:17.322Z,24.81
2023-03-26T01:21:17.345Z,24.81
2023-03-26T01:22:17.296Z,24.81
2023-03-26T01:23:17.298Z,24.84
2023-03-26T01:24:17.311Z,24.82
2023-03-26T01:25:17.313Z,24.75
2023-03-26T01:26:17.217Z,24.74
2023-03-26T01:27:17.200Z,24.71
2023-03-26T01:28:17.274Z,24.74
2023-03-26T01:29:17.248Z,24.71
2023-03-26T01:30:17.207Z,24.71
2023-03-26T01:31:17.312Z,24.69
2023-03-26T01:32:17.126Z,24.71
2023-03-26T01:33:17.360Z,24.74
2023-03-26T01:34:17.176Z,24.75
2023-03-26T01:35:17.245Z,24.78
2023-03-26T01:36:17.137Z,24.79
2023-03-26T01:37:17.212Z,24.79
2023-03-26T01:38:17.074Z,24.81
2023-03-26T01:39:17.082Z,24.81
2023-03-26T01:40:17.130Z,24.84
2023-03-26T01:41:17.190Z,24.85
2023-03-26T01:42:17.070Z,24.82
2023-03-26T01:43:17.184Z,24.78
2023-03-26T01:44:17.011Z,24.69
2023-03-26T01:45:17.120Z,24.68
2023-03-26T01:46:17.235Z,24.66
2023-03-26T01:47:17.026Z,24.65
2023-03-26T01:48:17.039Z,24.68
2023-03-26T01:49:17.031Z,24.69
2023-03-26T01:50:17.055Z,24.74
2023-03-26T01:51:17.057Z,24.75
2023-03-26T01:52:17.088Z,24.75
2023-03-26T01:53:17.473Z,24.74
2023-03-26T01:54:16.934Z,24.69
2023-03-26T01:55:16.981Z,24.71
2023-03-26T01:56:16.983Z,24.71
2023-03-26T01:57:17.041Z,24.71
2023-03-26T01:58:17.515Z,24.69
2023-03-26T01:59:16.955Z,24.75
2023-03-26T02:00:16.909Z,24.75
2023-03-26T02:01:16.923Z,24.75
2023-03-26T02:02:16.994Z,24.71
2023-03-26T02:03:16.991Z,24.69
2023-03-26T02:04:16.939Z,24.65
2023-03-26T02:05:16.841Z,24.59
2023-03-26T02:06:16.846Z,24.53
2023-03-26T02:07:16.757Z,24.47
2023-03-26T02:08:17.788Z,24.41
2023-03-26T02:09:16.864Z,24.38
2023-03-26T02:10:16.820Z,24.40
2023-03-26T02:11:16.773Z,24.40
2023-03-26T02:12:16.687Z,24.41
2023-03-26T02:13:16.733Z,24.40
2023-03-26T02:14:16.742Z,24.38
2023-03-26T02:15:16.807Z,24.34
2023-03-26T02:16:17.007Z,24.34
2023-03-26T02:17:16.622Z,24.28
2023-03-26T02:18:16.672Z,24.24
2023-03-26T02:19:16.752Z,24.21
2023-03-26T02:20:16.690Z,24.19
2023-03-26T02:21:17.574Z,24.19
2023-03-26T02:22:16.652Z,24.21
2023-03-26T02:23:16.606Z,24.21
2023-03-26T02:24:16.621Z,24.21
2023-03-26T02:25:16.580Z,24.22
2023-03-26T02:26:16.628Z,24.26
2023-03-26T02:27:16.584Z,24.29
2023-03-26T02:28:16.594Z,24.36
2023-03-26T02:29:16.546Z,24.38
2023-03-26T02:30:16.561Z,24.43
2023-03-26T02:31:16.553Z,24.44
2023-03-26T02:32:16.515Z,24.47
2023-03-26T02:33:16.518Z,24.50
2023-03-26T02:34:16.521Z,24.53
2023-03-26T02:35:16.464Z,24.58
2023-03-26T02:36:16.636Z,24.61
2023-03-26T02:37:16.448Z,24.62
2023-03-26T02:38:16.444Z,24.63
2023-03-26T02:39:16.506Z,24.66
2023-03-26T02:40:16.471Z,24.68
2023-03-26T02:41:16.421Z,24.69
2023-03-26T02:42:16.523Z,24.71
2023-03-26T02:43:16.432Z,24.74
2023-03-26T02:44:16.386Z,24.74
2023-03-26T02:45:16.489Z,24.75
2023-03-26T02:46:16.436Z,24.77
2023-03-26T02:47:16.311Z,24.78
2023-03-26T02:48:16.373Z,24.77
2023-03-26T02:49:16.407Z,24.75
2023-03-26T02:50:16.426Z,24.71
2023-03-26T02:51:16.363Z,24.69
2023-03-26T02:52:16.339Z,24.65
2023-03-26T02:53:16.336Z,24.61
2023-03-26T02:54:16.354Z,24.55
2023-03-26T02:55:16.358Z,24.50
2023-03-26T02:56:16.360Z,24.46
2023-03-26T02:57:16.389Z,24.41
2023-03-26T02:58:16.363Z,24.38
2023-03-26T02:59:16.281Z,24.36
2023-03-26T03:00:16.383Z,24.38
2023-03-26T03:01:16.339Z,24.40
2023-03-26T03:02:16.350Z,24.43
2023-03-26T03:03:16.247Z,24.44
2023-03-26T03:04:16.306Z,24.47
2023-03-26T03:05:16.218Z,24.48
2023-03-26T03:06:16.220Z,24.50
2023-03-26T03:07:16.165Z,24.50
2023-03-26T03:08:16.168Z,24.51
2023-03-26T03:09:16.141Z,24.48
2023-03-26T03:10:16.255Z,24.47
2023-03-26T03:11:16.099Z,24.44
2023-03-26T03:12:16.162Z,24.41
2023-03-26T03:13:16.174Z,24.38
2023-03-26T03:14:16.110Z,24.40
2023-03-26T03:15:16.080Z,24.36
2023-03-26T03:16:16.102Z,24.36
2023-03-26T03:17:16.033Z,24.37
2023-03-26T03:18:16.039Z,24.37
2023-03-26T03:19:16.048Z,24.34
2023-03-26T03:20:16.148Z,24.32
2023-03-26T03:21:16.027Z,24.31
2023-03-26T03:22:16.064Z,24.29
2023-03-26T03:23:15.946Z,24.28
2023-03-26T03:24:16.021Z,24.31
2023-03-26T03:25:15.937Z,24.31
2023-03-26T03:26:15.945Z,24.34
2023-03-26T03:27:15.950Z,24.34
2023-03-26T03:28:16.055Z,24.32
2023-03-26T03:29:15.874Z,24.31
2023-03-26T03:30:15.892Z,24.29
2023-03-26T03:31:15.933Z,24.31
2023-03-26T03:32:15.877Z,24.31
2023-03-26T03:33:15.888Z,24.32
2023-03-26T03:34:15.921Z,24.31
2023-03-26T03:35:15.901Z,24.34
2023-03-26T03:36:20.972Z,24.37
2023-03-26T03:37:15.910Z,24.38
2023-03-26T03:38:15.912Z,24.38
2023-03-26T03:39:15.832Z,24.40
2023-03-26T03:40:16.179Z,24.40
2023-03-26T03:41:15.793Z,24.41
2023-03-26T03:42:15.777Z,24.44
2023-03-26T03:43:15.790Z,24.47
2023-03-26T03:44:15.963Z,24.48
2023-03-26T03:45:16.214Z,24.50
2023-03-26T03:46:15.814Z,24.51
2023-03-26T03:47:15.725Z,24.53
2023-03-26T03:48:15.789Z,24.53
2023-03-26T03:49:15.790Z,24.51
2023-03-26T03:50:15.735Z,24.50
2023-03-26T03:51:15.746Z,24.47
2023-03-26T03:52:15.803Z,24.44
2023-03-26T03:53:15.710Z,24.38
2023-03-26T03:54:15.716Z,24.38
2023-03-26T03:55:15.623Z,24.37
2023-03-26T03:56:15.674Z,24.36
2023-03-26T03:57:15.736Z,24.36
2023-03-26T03:58:15.678Z,24.34
2023-03-26T03:59:15.661Z,24.32
2023-03-26T04:00:15.590Z,24.29
2023-03-26T04:01:15.633Z,24.28
2023-03-26T04:02:15.699Z,24.24
2023-03-26T04:03:15.691Z,24.26
2023-03-26T04:04:15.774Z,24.25
2023-03-26T04:05:15.593Z,24.26
2023-03-26T04:06:15.533Z,24.29
2023-03-26T04:07:15.531Z,24.29
2023-03-26T04:08:15.609Z,24.28
2023-03-26T04:09:15.673Z,24.31
2023-03-26T04:10:15.517Z,24.31
2023-03-26T04:11:15.520Z,24.34
2023-03-26T04:12:15.556Z,24.37
2023-03-26T04:13:15.504Z,24.37
2023-03-26T04:14:15.550Z,24.40
2023-03-26T04:15:15.557Z,24.41
2023-03-26T04:16:15.573Z,24.44
2023-03-26T04:17:15.511Z,24.46
2023-03-26T04:18:15.448Z,24.47
2023-03-26T04:19:15.450Z,24.47
2023-03-26T04:20:15.381Z,24.48
2023-03-26T04:21:15.463Z,24.46
2023-03-26T04:22:15.400Z,24.44
2023-03-26T04:23:15.302Z,24.44
2023-03-26T04:24:15.304Z,24.41
2023-03-26T04:25:15.741Z,24.38
2023-03-26T04:26:15.322Z,24.37
2023-03-26T04:27:15.302Z,24.34
2023-03-26T04:28:15.332Z,24.36
2023-03-26T04:29:15.342Z,24.34
2023-03-26T04:30:15.260Z,24.34
2023-03-26T04:31:15.716Z,24.36
2023-03-26T04:32:16.081Z,24.36
2023-03-26T04:33:16.153Z,24.36
2023-03-26T04:34:15.240Z,24.38
2023-03-26T04:35:15.255Z,24.40
2023-03-26T04:36:15.255Z,24.40
2023-03-26T04:37:15.158Z,24.41
2023-03-26T04:38:15.272Z,24.40
2023-03-26T04:39:15.184Z,24.40
2023-03-26T04:40:15.170Z,24.40
2023-03-26T04:41:15.189Z,24.41
2023-03-26T04:42:15.088Z,24.41
2023-03-26T04:43:15.237Z,24.43
2023-03-26T04:44:15.093Z,24.41
2023-03-26T04:45:15.125Z,24.43
2023-03-26T04:46:15.147Z,24.43
2023-03-26T04:47:15.332Z,24.43
2023-03-26T04:48:15.053Z,24.46
2023-03-26T04:49:15.120Z,24.46
2023-03-26T04:50:15.159Z,24.46
2023-03-26T04:51:15.105Z,24.44
2023-03-26T04:52:15.073Z,24.43
2023-03-26T04:53:15.062Z,24.41
2023-03-26T04:54:15.265Z,24.38
2023-03-26T04:55:14.974Z,24.36
2023-03-26T04:56:14.986Z,24.32
2023-03-26T04:57:15.054Z,24.28
2023-03-26T04:58:14.996Z,24.24
2023-03-26T04:59:15.026Z,24.22
2023-03-26T05:00:14.995Z,24.21
2023-03-26T05:01:15.261Z,24.18
2023-03-26T05:02:15.106Z,24.16
2023-03-26T05:03:14.938Z,24.14
2023-03-26T05:04:15.122Z,24.10
2023-03-26T05:05:14.920Z,24.04
2023-03-26T05:06:14.908Z,24.00
2023-03-26T05:07:14.909Z,23.94
2023-03-26T05:08:14.912Z,23.92
2023-03-26T05:09:15.161Z,23.88
2023-03-26T05:10:14.886Z,23.81
2023-03-26T05:11:14.857Z,23.76
2023-03-26T05:12:14.777Z,23.76
2023-03-26T05:13:14.873Z,23.73
2023-03-26T05:14:15.099Z,23.70
2023-03-26T05:15:15.618Z,23.67
2023-03-26T05:16:14.815Z,23.67
2023-03-26T05:17:15.002Z,23.66
2023-03-26T05:18:14.816Z,23.64
2023-03-26T05:19:14.688Z,23.62
2023-03-26T05:20:15.124Z,23.59
2023-03-26T05:21:14.805Z,23.58
2023-03-26T05:22:14.731Z,23.59
2023-03-26T05:23:14.649Z,23.64
2023-03-26T05:24:14.656Z,23.66
2023-03-26T05:25:15.364Z,23.66
2023-03-26T05:26:15.084Z,23.67
2023-03-26T05:27:14.761Z,23.66
2023-03-26T05:28:14.683Z,23.64
2023-03-26T05:29:14.592Z,23.59
2023-03-26T05:30:14.598Z,23.56
2023-03-26T05:31:14.598Z,23.52
2023-03-26T05:32:14.608Z,23.54
2023-03-26T05:33:15.619Z,23.54
2023-03-26T05:34:14.549Z,23.54
2023-03-26T05:35:14.549Z,23.54
2023-03-26T05:36:14.609Z,23.55
2023-03-26T05:37:14.539Z,23.54
2023-03-26T05:38:14.629Z,23.52
2023-03-26T05:39:14.559Z,23.49
2023-03-26T05:40:14.549Z,23.48
2023-03-26T05:41:14.473Z,23.47
2023-03-26T05:42:14.549Z,23.40
2023-03-26T05:43:14.567Z,23.39
2023-03-26T05:44:14.662Z,23.40
2023-03-26T05:45:14.594Z,23.44
2023-03-26T05:46:14.410Z,23.45
2023-03-26T05:47:14.401Z,23.48
2023-03-26T05:48:14.410Z,23.51
2023-03-26T05:49:15.354Z,23.54
2023-03-26T05:50:14.627Z,23.55
2023-03-26T05:51:14.422Z,23.59
2023-03-26T05:52:14.343Z,23.63
2023-03-26T05:53:14.351Z,23.63
2023-03-26T05:54:14.352Z,23.58
2023-03-26T05:55:14.445Z,23.54
2023-03-26T05:56:14.358Z,23.49
2023-03-26T05:57:14.451Z,23.45
2023-03-26T05:58:14.265Z,23.42
2023-03-26T05:59:14.275Z,23.42
2023-03-26T06:00:14.369Z,23.42
2023-03-26T06:01:14.295Z,23.42
2023-03-26T06:02:14.292Z,23.37
2023-03-26T06:03:14.544Z,23.37
2023-03-26T06:04:14.342Z,23.34
2023-03-26T06:05:14.224Z,23.33
2023-03-26T06:06:14.220Z,23.33
2023-03-26T06:07:14.234Z,23.33
2023-03-26T06:08:14.231Z,23.28
2023-03-26T06:09:14.238Z,23.29
2023-03-26T06:10:17.950Z,23.26
2023-03-26T06:11:14.156Z,23.28
2023-03-26T06:12:14.171Z,23.26
2023-03-26T06:13:14.244Z,23.25
2023-03-26T06:14:14.185Z,23.25
2023-03-26T06:15:14.177Z,23.20
2023-03-26T06:16:26.236Z,23.20
2023-03-26T06:17:14.091Z,23.17
2023-03-26T06:18:14.147Z,23.17
2023-03-26T06:19:14.155Z,23.17
2023-03-26T06:20:14.130Z,23.17
2023-03-26T06:21:14.137Z,23.14
2023-03-26T06:22:14.129Z,23.16
2023-03-26T06:23:14.108Z,23.16
2023-03-26T06:24:14.037Z,23.16
2023-03-26T06:25:14.062Z,23.13
2023-03-26T06:26:14.054Z,23.11
2023-03-26T06:27:13.965Z,23.10
2023-03-26T06:28:13.967Z,23.02
2023-03-26T06:29:13.992Z,23.01
2023-03-26T06:30:13.975Z,23.02
2023-03-26T06:31:14.092Z,22.96
2023-03-26T06:32:19.543Z,22.93
2023-03-26T06:33:14.015Z,22.92
2023-03-26T06:34:13.904Z,22.92
2023-03-26T06:35:14.004Z,22.91
2023-03-26T06:36:14.008Z,22.92
2023-03-26T06:37:14.230Z,22.95
2023-03-26T06:38:13.932Z,22.98
2023-03-26T06:39:13.949Z,23.01
2023-03-26T06:40:15.503Z,23.06
2023-03-26T06:41:13.944Z,23.07
2023-03-26T06:42:13.860Z,23.08
2023-03-26T06:43:13.973Z,23.11
2023-03-26T06:44:13.909Z,23.13
2023-03-26T06:45:13.946Z,23.13
2023-03-26T06:46:13.819Z,23.13
2023-03-26T06:47:13.792Z,23.08
2023-03-26T06:48:13.795Z,23.10
2023-03-26T06:49:13.779Z,23.08
2023-03-26T06:50:13.798Z,23.06
2023-03-26T06:51:13.816Z,23.07
2023-03-26T06:52:13.720Z,23.07
2023-03-26T06:53:13.721Z,23.06
2023-03-26T06:54:13.738Z,23.07
2023-03-26T06:55:13.718Z,23.02
2023-03-26T06:56:13.753Z,23.04
2023-03-26T06:57:13.811Z,23.07
2023-03-26T06:58:13.665Z,23.04
2023-03-26T06:59:13.643Z,23.06
2023-03-26T07:00:13.669Z,23.06
2023-03-26T07:01:13.723Z,23.07
2023-03-26T07:02:14.194Z,23.08
2023-03-26T07:03:13.672Z,23.08
2023-03-26T07:04:13.602Z,23.10
2023-03-26T07:05:13.592Z,23.14
2023-03-26T07:06:13.615Z,23.16
2023-03-26T07:07:13.603Z,23.18
2023-03-26T07:08:13.780Z,23.17
2023-03-26T07:09:13.587Z,23.17
2023-03-26T07:10:13.527Z,23.20
2023-03-26T07:11:13.637Z,23.23
2023-03-26T07:12:13.533Z,23.23
2023-03-26T07:13:13.551Z,23.26
2023-03-26T07:14:13.710Z,23.23
2023-03-26T07:15:13.629Z,23.21
2023-03-26T07:16:13.461Z,23.18
2023-03-26T07:17:13.465Z,23.16
2023-03-26T07:18:13.479Z,23.16
2023-03-26T07:19:13.483Z,23.16
2023-03-26T07:20:14.205Z,23.13
2023-03-26T07:21:13.454Z,23.10
2023-03-26T07:22:13.462Z,23.07
2023-03-26T07:23:13.405Z,23.01
2023-03-26T07:24:14.336Z,22.98
2023-03-26T07:25:13.482Z,22.95
2023-03-26T07:26:13.485Z,22.91
2023-03-26T07:27:14.417Z,22.91
2023-03-26T07:28:13.503Z,22.88
2023-03-26T07:29:13.415Z,22.83
2023-03-26T07:30:13.434Z,22.80
2023-03-26T07:31:13.358Z,22.78
2023-03-26T07:32:14.675Z,22.74
2023-03-26T07:33:13.351Z,22.73
2023-03-26T07:34:13.357Z,22.74
2023-03-26T07:35:13.355Z,22.77
2023-03-26T07:36:13.356Z,22.80
2023-03-26T07:37:13.354Z,22.80
2023-03-26T07:38:13.320Z,22.80
2023-03-26T07:39:14.304Z,22.83
2023-03-26T07:40:13.389Z,22.86
2023-03-26T07:41:13.289Z,22.86
2023-03-26T07:42:13.285Z,22.88
2023-03-26T07:43:13.311Z,22.88
2023-03-26T07:44:13.306Z,22.86
2023-03-26T07:45:14.176Z,22.86
2023-03-26T07:46:13.347Z,22.86
2023-03-26T07:47:13.232Z,22.88
2023-03-26T07:48:13.231Z,22.88
2023-03-26T07:49:13.230Z,22.86
2023-03-26T07:50:13.344Z,22.89
2023-03-26T07:51:13.759Z,22.88
2023-03-26T07:52:13.256Z,22.86
2023-03-26T07:53:13.148Z,22.84
2023-03-26T07:54:13.164Z,22.86
2023-03-26T07:55:13.169Z,22.88
2023-03-26T07:56:13.220Z,22.88
2023-03-26T07:57:13.702Z,22.89
2023-03-26T07:58:13.705Z,22.92
2023-03-26T07:59:13.041Z,22.95
2023-03-26T08:00:13.110Z,22.98
2023-03-26T08:01:13.035Z,23.01
2023-03-26T08:02:13.043Z,23.04
2023-03-26T08:03:13.179Z,23.07
2023-03-26T08:04:23.460Z,23.08
2023-03-26T08:05:12.969Z,23.10
2023-03-26T08:06:12.961Z,23.08
2023-03-26T08:07:13.036Z,23.08
2023-03-26T08:08:12.968Z,23.04
2023-03-26T08:09:12.986Z,23.01
2023-03-26T08:10:12.884Z,23.02
2023-03-26T08:11:12.887Z,23.01
2023-03-26T08:12:12.898Z,22.99
2023-03-26T08:13:12.978Z,22.99
2023-03-26T08:14:13.637Z,22.96
2023-03-26T08:15:12.994Z,22.93
2023-03-26T08:16:12.849Z,22.91
2023-03-26T08:17:12.829Z,22.89
2023-03-26T08:18:12.915Z,22.84
2023-03-26T08:19:12.915Z,22.84
2023-03-26T08:20:13.758Z,22.81
2023-03-26T08:21:12.939Z,22.80
2023-03-26T08:22:12.763Z,22.74
2023-03-26T08:23:12.765Z,22.74
2023-03-26T08:24:12.850Z,22.76
2023-03-26T08:25:13.074Z,22.76
2023-03-26T08:26:12.875Z,22.76
2023-03-26T08:27:12.848Z,22.76
2023-03-26T08:28:12.696Z,22.74
2023-03-26T08:29:12.804Z,22.71
2023-03-26T08:30:12.801Z,22.71
2023-03-26T08:31:12.841Z,22.70
2023-03-26T08:32:12.802Z,22.73
2023-03-26T08:33:12.713Z,22.70
2023-03-26T08:34:12.723Z,22.65
2023-03-26T08:35:12.764Z,22.65
2023-03-26T08:36:12.670Z,22.63
2023-03-26T08:37:12.672Z,22.62
2023-03-26T08:38:12.683Z,22.61
2023-03-26T08:39:12.653Z,22.63
2023-03-26T08:40:13.411Z,22.62
2023-03-26T08:41:12.689Z,22.62
2023-03-26T08:42:12.569Z,22.63
2023-03-26T08:43:12.681Z,22.65
2023-03-26T08:44:12.517Z,22.67
2023-03-26T08:45:12.598Z,22.70
2023-03-26T08:46:12.619Z,22.71
2023-03-26T08:47:12.538Z,22.74
2023-03-26T08:48:12.499Z,22.77
2023-03-26T08:49:12.553Z,22.81
2023-03-26T08:50:12.536Z,22.84
2023-03-26T08:51:12.564Z,22.88
2023-03-26T08:52:12.548Z,22.88
2023-03-26T08:53:12.579Z,22.86
2023-03-26T08:54:12.555Z,22.89
2023-03-26T08:55:12.521Z,22.89
2023-03-26T08:56:12.500Z,22.89
2023-03-26T08:57:12.572Z,22.89
2023-03-26T08:58:12.380Z,22.91
2023-03-26T08:59:12.569Z,22.89
2023-03-26T09:00:12.470Z,22.88
2023-03-26T09:01:12.408Z,22.83
2023-03-26T09:02:12.460Z,22.80
2023-03-26T09:03:12.443Z,22.77
2023-03-26T09:04:12.399Z,22.78
2023-03-26T09:05:12.402Z,22.80
2023-03-26T09:06:12.334Z,22.81
2023-03-26T09:07:13.186Z,22.83
2023-03-26T09:08:12.347Z,22.84
2023-03-26T09:09:19.064Z,22.84
2023-03-26T09:10:12.554Z,22.86
2023-03-26T09:11:12.262Z,22.88
2023-03-26T09:12:12.367Z,22.88
2023-03-26T09:13:12.356Z,22.92
2023-03-26T09:14:12.267Z,22.92
2023-03-26T09:15:12.220Z,22.91
2023-03-26T09:16:12.428Z,22.91
2023-03-26T09:17:12.233Z,22.92
2023-03-26T09:18:12.322Z,22.93
2023-03-26T09:19:12.227Z,22.96
2023-03-26T09:20:12.252Z,23.01
2023-03-26T09:21:12.133Z,23.02
2023-03-26T09:22:12.217Z,23.04
2023-03-26T09:23:13.899Z,23.07
2023-03-26T09:24:12.173Z,23.08
2023-03-26T09:25:12.136Z,23.07
2023-03-26T09:26:12.143Z,23.08
2023-03-26T09:27:12.076Z,23.04
2023-03-26T09:28:12.395Z,23.01
2023-03-26T09:29:12.096Z,22.96
2023-03-26T09:30:12.171Z,22.92
2023-03-26T09:31:12.134Z,22.91
2023-03-26T09:32:12.148Z,22.88
2023-03-26T09:33:12.539Z,22.84
2023-03-26T09:34:12.034Z,22.81
2023-03-26T09:35:13.568Z,22.81
2023-03-26T09:36:12.071Z,22.84
2023-03-26T09:37:11.976Z,22.84
2023-03-26T09:38:12.969Z,22.81
2023-03-26T09:39:12.047Z,22.80
2023-03-26T09:40:12.004Z,22.77
2023-03-26T09:41:12.006Z,22.73
2023-03-26T09:42:11.983Z,22.70
2023-03-26T09:43:11.995Z,22.67
2023-03-26T09:44:11.987Z,22.65
2023-03-26T09:45:11.991Z,22.62
2023-03-26T09:46:11.964Z,22.63
2023-03-26T09:47:12.007Z,22.62
2023-03-26T09:48:11.936Z,22.62
2023-03-26T09:49:11.882Z,22.61
2023-03-26T09:50:11.933Z,22.62
2023-03-26T09:51:11.879Z,22.59
2023-03-26T09:52:11.883Z,22.61
2023-03-26T09:53:11.885Z,22.58
2023-03-26T09:54:11.895Z,22.53
2023-03-26T09:55:11.796Z,22.53
2023-03-26T09:56:11.866Z,22.53
2023-03-26T09:57:11.848Z,22.53
2023-03-26T09:58:11.820Z,22.52
2023-03-26T09:59:11.773Z,22.52
2023-03-26T10:00:11.804Z,22.52
2023-03-26T10:01:11.857Z,22.51
2023-03-26T10:02:11.732Z,22.51
2023-03-26T10:03:11.735Z,22.49
2023-03-26T10:04:11.709Z,22.49
2023-03-26T10:05:11.754Z,22.47
2023-03-26T10:06:12.472Z,22.46
2023-03-26T10:07:11.663Z,22.46
2023-03-26T10:08:11.677Z,22.44
2023-03-26T10:09:11.747Z,22.43
2023-03-26T10:10:11.689Z,22.43
2023-03-26T10:11:11.687Z,22.44
2023-03-26T10:12:11.677Z,22.41
2023-03-26T10:13:14.906Z,22.41
2023-03-26T10:14:11.570Z,22.44
2023-03-26T10:15:11.689Z,22.47
2023-03-26T10:16:11.649Z,22.52
2023-03-26T10:17:11.623Z,22.56
2023-03-26T10:18:27.654Z,22.61
2023-03-26T10:19:11.609Z,22.65
2023-03-26T10:20:11.517Z,22.70
2023-03-26T10:21:11.835Z,22.71
2023-03-26T10:22:11.474Z,22.77
2023-03-26T10:23:11.460Z,22.81
2023-03-26T10:24:11.468Z,22.86
2023-03-26T10:25:11.445Z,22.92
2023-03-26T10:26:11.458Z,22.95
2023-03-26T10:27:11.453Z,23.01
2023-03-26T10:28:11.386Z,23.07
2023-03-26T10:29:11.393Z,23.10
2023-03-26T10:30:11.401Z,23.16
2023-03-26T10:31:11.414Z,23.17
2023-03-26T10:32:11.424Z,23.18
2023-03-26T10:33:11.504Z,23.20
2023-03-26T10:34:28.806Z,23.23
2023-03-26T10:35:11.336Z,23.28
2023-03-26T10:36:11.348Z,23.33
2023-03-26T10:37:11.350Z,23.34
2023-03-26T10:38:11.317Z,23.37
2023-03-26T10:39:11.421Z,23.36
2023-03-26T10:40:11.300Z,23.39
2023-03-26T10:41:11.308Z,23.42
2023-03-26T10:42:11.852Z,23.45
2023-03-26T10:43:12.488Z,23.49
2023-03-26T10:44:11.252Z,23.51
2023-03-26T10:45:11.297Z,23.55
2023-03-26T10:46:11.357Z,23.58
2023-03-26T10:47:11.224Z,23.56
2023-03-26T10:48:11.279Z,23.52
2023-03-26T10:49:11.177Z,23.54
2023-03-26T10:50:11.191Z,23.56
2023-03-26T10:51:11.188Z,23.58
2023-03-26T10:52:11.135Z,23.63
2023-03-26T10:53:11.205Z,23.69
2023-03-26T10:54:11.173Z,23.73
2023-03-26T10:55:11.127Z,23.76
2023-03-26T10:56:11.154Z,23.77
2023-03-26T10:57:11.164Z,23.81
2023-03-26T10:58:11.162Z,23.85
2023-03-26T10:59:11.083Z,23.89
2023-03-26T11:00:11.094Z,23.92
2023-03-26T11:01:11.096Z,23.94
2023-03-26T11:02:11.110Z,23.99
2023-03-26T11:03:11.188Z,24.03
2023-03-26T11:04:11.015Z,24.07
2023-03-26T11:05:11.107Z,24.13
2023-03-26T11:06:11.027Z,24.19
2023-03-26T11:07:11.100Z,24.25
2023-03-26T11:08:11.048Z,24.31
2023-03-26T11:09:11.018Z,24.34
2023-03-26T11:10:11.028Z,24.38
2023-03-26T11:11:11.029Z,24.41
2023-03-26T11:12:27.006Z,24.46
2023-03-26T11:13:10.989Z,24.50
2023-03-26T11:14:10.952Z,24.56
2023-03-26T11:15:10.989Z,24.59
2023-03-26T11:16:11.007Z,24.62
2023-03-26T11:17:14.502Z,24.66
2023-03-26T11:18:11.016Z,24.69
2023-03-26T11:19:10.924Z,24.74
2023-03-26T11:20:10.952Z,24.78
2023-03-26T11:21:19.899Z,24.78
2023-03-26T11:22:10.871Z,24.79
2023-03-26T11:23:10.842Z,24.85
2023-03-26T11:24:10.891Z,24.93
2023-03-26T11:25:10.864Z,24.97
2023-03-26T11:26:10.858Z,25.01
2023-03-26T11:27:15.403Z,25.06
2023-03-26T11:28:12.231Z,25.11
2023-03-26T11:29:32.757Z,25.15
2023-03-26T11:30:10.789Z,25.18
2023-03-26T11:31:10.814Z,25.21
2023-03-26T11:32:10.748Z,25.24
2023-03-26T11:33:10.864Z,25.29
2023-03-26T11:34:10.742Z,25.31
2023-03-26T11:35:10.822Z,25.39
2023-03-26T11:36:10.796Z,25.41
2023-03-26T11:37:10.768Z,25.48
2023-03-26T11:38:10.675Z,25.51
2023-03-26T11:39:10.711Z,25.55
2023-03-26T11:40:10.707Z,25.62
2023-03-26T11:41:10.715Z,25.66
2023-03-26T11:42:10.719Z,25.70
2023-03-26T11:43:10.717Z,25.74
2023-03-26T11:44:10.619Z,25.77
2023-03-26T11:45:10.626Z,25.83
2023-03-26T11:46:10.820Z,25.88
2023-03-26T11:47:10.641Z,25.88
2023-03-26T11:48:10.627Z,25.89
2023-03-26T11:49:10.557Z,25.92
2023-03-26T11:50:10.549Z,25.91
2023-03-26T11:51:10.575Z,25.92
2023-03-26T11:52:10.596Z,25.93
2023-03-26T11:53:10.587Z,25.98
2023-03-26T11:54:10.587Z,26.04
2023-03-26T11:55:11.418Z,26.08
2023-03-26T11:56:10.604Z,26.15
2023-03-26T11:57:10.519Z,26.19
2023-03-26T11:58:11.203Z,26.24
2023-03-26T11:59:10.523Z,26.30
2023-03-26T12:00:10.548Z,26.36
2023-03-26T12:01:10.437Z,26.39
2023-03-26T12:02:10.456Z,26.45
2023-03-26T12:03:10.478Z,26.48
2023-03-26T12:04:10.795Z,26.53
2023-03-26T12:05:10.474Z,26.60
2023-03-26T12:06:10.441Z,26.64
2023-03-26T12:07:10.365Z,26.67
2023-03-26T12:08:10.375Z,26.71
2023-03-26T12:09:10.398Z,26.74
2023-03-26T12:10:18.875Z,26.74
2023-03-26T12:11:10.414Z,26.79
2023-03-26T12:12:10.387Z,26.76
2023-03-26T12:13:10.307Z,26.81
2023-03-26T12:14:10.314Z,26.83
2023-03-26T12:15:10.318Z,26.86
2023-03-26T12:16:10.902Z,26.92
2023-03-26T12:17:10.336Z,26.96
2023-03-26T12:18:11.056Z,26.88
2023-03-26T12:19:10.240Z,26.88
2023-03-26T12:20:10.248Z,26.91
2023-03-26T12:21:10.297Z,26.96
2023-03-26T12:22:10.256Z,27.00
2023-03-26T12:23:10.273Z,27.05
2023-03-26T12:24:10.189Z,27.15
2023-03-26T12:25:10.188Z,27.20
2023-03-26T12:26:10.196Z,27.29
2023-03-26T12:27:10.206Z,27.38
2023-03-26T12:28:10.813Z,27.45
2023-03-26T12:29:10.218Z,27.53
2023-03-26T12:30:10.115Z,27.61
2023-03-26T12:31:10.123Z,27.66
2023-03-26T12:32:10.120Z,27.68
2023-03-26T12:33:10.163Z,27.72
2023-03-26T12:34:10.251Z,27.75
2023-03-26T12:35:10.142Z,27.76
2023-03-26T12:36:10.115Z,27.73
2023-03-26T12:37:10.056Z,27.64
2023-03-26T12:38:10.073Z,27.61
2023-03-26T12:39:42.985Z,27.64
2023-03-26T12:40:20.632Z,27.61
2023-03-26T12:43:51.460Z,27.64
2023-03-26T12:44:59.650Z,27.68
2023-03-26T12:45:06.320Z,27.71
2023-03-26T12:47:55.222Z,27.71
2023-03-26T12:48:08.569Z,27.75
2023-03-26T12:48:14.927Z,27.79
2023-03-26T12:49:15.033Z,27.83
2023-03-26T12:50:14.839Z,27.88
2023-03-26T12:51:16.875Z,27.90
2023-03-26T12:52:14.852Z,27.93
2023-03-26T12:53:14.788Z,27.94
2023-03-26T12:54:14.777Z,27.81